Flinterborg — PHPH — position and weather

sailwx.info

Track history (hours):
 
Tides and Currents Weather Stations Pressure Air Temp Water Temp Dewpoint Dewpoint Depression Visibility Wind Speed Wind Dir Waves Ship Positions

Flinterborg

Last reported at 2017-Oct-21 06:42 UTC. Time now 2017-Oct-23 01:01 UTC.
Position N 46°21' W 002°11'.

Length 111 m; draft 5.9 m.

Type: Cargo ship. MMSI: 245433000.

Date/timePositionNaut miles runAvg speedWind from/ knotsBaromVisibWave heightAir tempDewpointWater temp
2017-Oct-21 06:42N 46°21' W 002°11'2 7.9
2017-Oct-21 06:28N 46°21' W 002°08'4 7.9
2017-Oct-21 05:59N 46°21' W 002°03'4 7.8
2017-Oct-21 05:30N 46°22' W 001°58'4 8.3
2017-Oct-21 05:00N 46°23' W 001°52'4 8.7
2017-Oct-21 04:30N 46°27' W 001°49'3 6.0
2017-Oct-21 04:01N 46°29' W 001°48'0 0.8
2017-Oct-21 03:30N 46°30' W 001°47'0 0.0
2017-Oct-21 02:59N 46°30' W 001°47'0 0.0
2017-Oct-21 02:26N 46°30' W 001°47'0 0.0
2017-Oct-21 01:58N 46°30' W 001°47'0 0.0
2017-Oct-21 01:07N 46°30' W 001°47'0 0.0
2017-Oct-21 00:58N 46°30' W 001°47'0 0.0
2017-Oct-21 00:28N 46°30' W 001°47'0 0.0
2017-Oct-20 23:57N 46°30' W 001°47'0 0.0
2017-Oct-20 23:30N 46°30' W 001°47'0 0.0
2017-Oct-20 23:00N 46°30' W 001°47'0 0.0
2017-Oct-20 22:24N 46°30' W 001°47'0 0.0
2017-Oct-20 21:57N 46°30' W 001°47'0 0.0
2017-Oct-20 21:17N 46°30' W 001°47'0 0.0
2017-Oct-20 20:41N 46°30' W 001°47'0 0.0
2017-Oct-20 20:23N 46°30' W 001°47'0 0.0
2017-Oct-20 19:59N 46°30' W 001°47'0 0.0
2017-Oct-20 19:10N 46°30' W 001°47'0 0.0
2017-Oct-20 18:58N 46°30' W 001°47'0 0.0
2017-Oct-20 18:28N 46°30' W 001°47'0 0.0
2017-Oct-20 17:58N 46°30' W 001°47'0 0.0
2017-Oct-20 17:25N 46°30' W 001°47'0 0.0
2017-Oct-20 17:00N 46°30' W 001°47'0 0.0
2017-Oct-20 16:30N 46°30' W 001°47'0 0.0
2017-Oct-20 16:00N 46°30' W 001°47'0 0.0
2017-Oct-20 15:30N 46°30' W 001°47'0 0.0
2017-Oct-20 15:00N 46°30' W 001°47'0 0.0
2017-Oct-20 13:59N 46°30' W 001°47'0 0.0
2017-Oct-20 13:29N 46°30' W 001°47'0 0.0
2017-Oct-20 12:56N 46°30' W 001°47'0 0.0
2017-Oct-20 12:29N 46°30' W 001°47'0 0.0
2017-Oct-20 11:58N 46°30' W 001°47'0 0.0
2017-Oct-20 11:28N 46°30' W 001°47'0 0.0
2017-Oct-20 10:58N 46°30' W 001°47'0 0.0
2017-Oct-20 10:28N 46°30' W 001°47'0 0.0
2017-Oct-20 09:57N 46°30' W 001°47'0 0.0
2017-Oct-20 09:27N 46°30' W 001°47'0 0.0
2017-Oct-20 08:54N 46°30' W 001°47'0 0.0
2017-Oct-20 08:18N 46°30' W 001°47'0 0.0
2017-Oct-20 08:00N 46°30' W 001°47'0 0.0
2017-Oct-20 07:26N 46°30' W 001°47'0 0.0
2017-Oct-20 06:59N 46°30' W 001°47'0 0.0
2017-Oct-20 06:23N 46°30' W 001°47'0 0.0
2017-Oct-20 05:59N 46°30' W 001°47'0 0.0
2017-Oct-20 05:28N 46°30' W 001°47'0 0.0
2017-Oct-20 04:52N 46°30' W 001°47'0 0.0
2017-Oct-20 04:28N 46°30' W 001°47'0 0.0
2017-Oct-20 03:58N 46°30' W 001°47'0 0.0
2017-Oct-20 03:19N 46°30' W 001°47'0 0.0
2017-Oct-20 03:00N 46°30' W 001°47'0 0.2
2017-Oct-20 02:31N 46°30' W 001°48'2 3.6
2017-Oct-20 02:01N 46°28' W 001°47'2 4.2
2017-Oct-20 01:30N 46°27' W 001°49'3 6.8
2017-Oct-20 01:01N 46°28' W 001°54'4 7.2
2017-Oct-20 00:31N 46°29' W 001°58'4 7.1
2017-Oct-20 00:00N 46°31' W 002°02'4 7.3
2017-Oct-19 23:30N 46°33' W 002°07'4 7.4
2017-Oct-19 23:00N 46°35' W 002°12'74 8.4
2017-Oct-19 14:14N 47°11' W 003°45'312.1
2017-Oct-19 14:00N 47°13' W 003°49'1712.0
2017-Oct-19 12:37N 47°21' W 004°10'4011.8
2017-Oct-19 09:14N 47°41' W 005°02'311.7
2017-Oct-19 08:59N 47°42' W 005°06'712.1
2017-Oct-19 08:24N 47°45' W 005°15'24611.5
2017-Oct-18 11:05N 51°50' W 005°56'113.0
2017-Oct-18 11:00N 51°51' W 005°55'612.9
2017-Oct-18 10:30N 51°57' W 005°52'612.7
2017-Oct-18 10:00N 52°03' W 005°48'612.1
2017-Oct-18 09:30N 52°08' W 005°44'611.9
2017-Oct-18 09:00N 52°14' W 005°40'611.4
2017-Oct-18 08:30N 52°19' W 005°37'9411.1
2017-Oct-18 00:01N 53°33' W 004°01'114.0
2017-Oct-17 23:58N 53°33' W 003°60'813.6
2017-Oct-17 23:24N 53°33' W 003°47'513.3
2017-Oct-17 23:00N 53°33' W 003°38'713.1
2017-Oct-17 22:30N 53°33' W 003°27'712.7
2017-Oct-17 21:58N 53°32' W 003°15'5 9.4
2017-Oct-17 21:29N 53°32' W 003°08'711.4
2017-Oct-17 20:53N 53°26' W 003°01'4 9.2
2017-Oct-17 20:29N 53°23' W 002°59'4 6.7
2017-Oct-17 19:57N 53°19' W 002°57'0 0.6
2017-Oct-17 19:30N 53°19' W 002°57'1 1.4
2017-Oct-17 19:00N 53°19' W 002°56'2 4.6
2017-Oct-17 18:29N 53°17' W 002°53'3 5.9
2017-Oct-17 17:54N 53°18' W 002°47'3 5.3
2017-Oct-17 17:23N 53°20' W 002°45'0 0.2
2017-Oct-17 17:00N 53°20' W 002°45'0 0.0
2017-Oct-17 11:26N 53°20' W 002°45'0 0.0
2017-Oct-17 04:35N 53°20' W 002°45'0 0.0
2017-Oct-17 04:29N 53°20' W 002°45'0 0.0
2017-Oct-17 00:24N 53°20' W 002°45'0 0.0
2017-Oct-16 15:54N 53°20' W 002°45'0 0.0
2017-Oct-16 15:26N 53°20' W 002°45'0 0.0
2017-Oct-16 12:22N 53°20' W 002°45'0 0.0
2017-Oct-16 05:07N 53°20' W 002°45'0 0.0
2017-Oct-16 03:18N 53°20' W 002°45'0 0.0
2017-Oct-16 02:48N 53°20' W 002°45'0 0.0
2017-Oct-16 01:53N 53°20' W 002°45'0 0.0
2017-Oct-15 23:56N 53°20' W 002°45'0 0.0
2017-Oct-15 23:25N 53°20' W 002°45'0 0.0
2017-Oct-15 22:01N 53°20' W 002°45'0 0.0
2017-Oct-15 21:55N 53°20' W 002°45'0 0.0
2017-Oct-15 21:09N 53°20' W 002°45'0 0.0
2017-Oct-15 19:51N 53°20' W 002°45'0 0.0
2017-Oct-15 17:43N 53°20' W 002°45'0 0.0
2017-Oct-15 09:10N 53°20' W 002°45'0 0.0
2017-Oct-15 08:43N 53°20' W 002°45'0 0.0
2017-Oct-15 08:19N 53°20' W 002°45'0 0.0
2017-Oct-14 23:37N 53°20' W 002°45'0 0.0
2017-Oct-14 22:09N 53°20' W 002°45'0 0.0
2017-Oct-14 20:42N 53°20' W 002°45'0 0.0
2017-Oct-14 19:35N 53°20' W 002°45'0 0.0
2017-Oct-14 18:11N 53°20' W 002°45'0 0.0
2017-Oct-14 16:43N 53°20' W 002°45'0 0.0
2017-Oct-14 15:37N 53°20' W 002°45'0 0.0
2017-Oct-14 12:56N 53°20' W 002°45'0 0.0
2017-Oct-14 04:42N 53°20' W 002°45'0 0.0
2017-Oct-13 21:37N 53°20' W 002°45'0 0.0
2017-Oct-13 20:51N 53°20' W 002°45'0 0.0
2017-Oct-13 18:59N 53°20' W 002°45'0 0.0
2017-Oct-13 16:31N 53°20' W 002°45'0 0.0
2017-Oct-13 11:07N 53°20' W 002°45'0 0.0
2017-Oct-13 10:49N 53°20' W 002°45'0 0.0
2017-Oct-13 10:19N 53°20' W 002°45'0 0.0
2017-Oct-13 00:45N 53°20' W 002°45'0 0.0
2017-Oct-12 21:01N 53°20' W 002°45'0 0.0
2017-Oct-12 20:40N 53°20' W 002°45'0 0.0
2017-Oct-12 19:19N 53°20' W 002°45'0 0.0
2017-Oct-12 18:57N 53°20' W 002°45'0 0.2
2017-Oct-12 18:28N 53°20' W 002°45'2 3.3
2017-Oct-12 17:58N 53°19' W 002°45'3 5.9
2017-Oct-12 17:30N 53°17' W 002°49'3 5.0
2017-Oct-12 17:00N 53°17' W 002°53'3 4.9
2017-Oct-12 16:28N 53°19' W 002°57'1 1.3
2017-Oct-12 15:55N 53°20' W 002°57'3 5.4
2017-Oct-12 15:27N 53°22' W 002°59'3 7.1
2017-Oct-12 14:58N 53°25' W 003°01'611.1
2017-Oct-12 14:25N 53°30' W 003°06'4 9.3
2017-Oct-12 13:59N 53°31' W 003°13'5 9.4
2017-Oct-12 13:29N 53°32' W 003°21'4 7.9
2017-Oct-12 12:59N 53°31' W 003°27'4 9.1
2017-Oct-12 12:30N 53°31' W 003°35'610.4
2017-Oct-12 11:53N 53°31' W 003°46'510.4
2017-Oct-12 11:27N 53°30' W 003°53'  
Track history (hours):
 
Tides and Currents Weather Stations Pressure Air Temp Water Temp Dewpoint Dewpoint Depression Visibility Wind Speed Wind Dir Waves Ship Positions

Flinterborg

Last reported at 2017-Oct-21 06:42 UTC. Time now 2017-Oct-23 01:01 UTC.
Position N 46°21' W 002°11'.

Length 111 m; draft 5.9 m.

Type: Cargo ship. MMSI: 245433000.

Date/timePositionNaut miles runAvg speedWind from/ knotsBaromVisibWave heightAir tempDewpointWater temp
2017-Oct-21 06:42N 46°21' W 002°11'2 7.9
2017-Oct-21 06:28N 46°21' W 002°08'4 7.9
2017-Oct-21 05:59N 46°21' W 002°03'4 7.8
2017-Oct-21 05:30N 46°22' W 001°58'4 8.3
2017-Oct-21 05:00N 46°23' W 001°52'4 8.7
2017-Oct-21 04:30N 46°27' W 001°49'3 6.0
2017-Oct-21 04:01N 46°29' W 001°48'0 0.8
2017-Oct-21 03:30N 46°30' W 001°47'0 0.0
2017-Oct-21 02:59N 46°30' W 001°47'0 0.0
2017-Oct-21 02:26N 46°30' W 001°47'0 0.0
2017-Oct-21 01:58N 46°30' W 001°47'0 0.0
2017-Oct-21 01:07N 46°30' W 001°47'0 0.0
2017-Oct-21 00:58N 46°30' W 001°47'0 0.0
2017-Oct-21 00:28N 46°30' W 001°47'0 0.0
2017-Oct-20 23:57N 46°30' W 001°47'0 0.0
2017-Oct-20 23:30N 46°30' W 001°47'0 0.0
2017-Oct-20 23:00N 46°30' W 001°47'0 0.0
2017-Oct-20 22:24N 46°30' W 001°47'0 0.0
2017-Oct-20 21:57N 46°30' W 001°47'0 0.0
2017-Oct-20 21:17N 46°30' W 001°47'0 0.0
2017-Oct-20 20:41N 46°30' W 001°47'0 0.0
2017-Oct-20 20:23N 46°30' W 001°47'0 0.0
2017-Oct-20 19:59N 46°30' W 001°47'0 0.0
2017-Oct-20 19:10N 46°30' W 001°47'0 0.0
2017-Oct-20 18:58N 46°30' W 001°47'0 0.0
2017-Oct-20 18:28N 46°30' W 001°47'0 0.0
2017-Oct-20 17:58N 46°30' W 001°47'0 0.0
2017-Oct-20 17:25N 46°30' W 001°47'0 0.0
2017-Oct-20 17:00N 46°30' W 001°47'0 0.0
2017-Oct-20 16:30N 46°30' W 001°47'0 0.0
2017-Oct-20 16:00N 46°30' W 001°47'0 0.0
2017-Oct-20 15:30N 46°30' W 001°47'0 0.0
2017-Oct-20 15:00N 46°30' W 001°47'0 0.0
2017-Oct-20 13:59N 46°30' W 001°47'0 0.0
2017-Oct-20 13:29N 46°30' W 001°47'0 0.0
2017-Oct-20 12:56N 46°30' W 001°47'0 0.0
2017-Oct-20 12:29N 46°30' W 001°47'0 0.0
2017-Oct-20 11:58N 46°30' W 001°47'0 0.0
2017-Oct-20 11:28N 46°30' W 001°47'0 0.0
2017-Oct-20 10:58N 46°30' W 001°47'0 0.0
2017-Oct-20 10:28N 46°30' W 001°47'0 0.0
2017-Oct-20 09:57N 46°30' W 001°47'0 0.0
2017-Oct-20 09:27N 46°30' W 001°47'0 0.0
2017-Oct-20 08:54N 46°30' W 001°47'0 0.0
2017-Oct-20 08:18N 46°30' W 001°47'0 0.0
2017-Oct-20 08:00N 46°30' W 001°47'0 0.0
2017-Oct-20 07:26N 46°30' W 001°47'0 0.0
2017-Oct-20 06:59N 46°30' W 001°47'0 0.0
2017-Oct-20 06:23N 46°30' W 001°47'0 0.0
2017-Oct-20 05:59N 46°30' W 001°47'0 0.0
2017-Oct-20 05:28N 46°30' W 001°47'0 0.0
2017-Oct-20 04:52N 46°30' W 001°47'0 0.0
2017-Oct-20 04:28N 46°30' W 001°47'0 0.0
2017-Oct-20 03:58N 46°30' W 001°47'0 0.0
2017-Oct-20 03:19N 46°30' W 001°47'0 0.0
2017-Oct-20 03:00N 46°30' W 001°47'0 0.2
2017-Oct-20 02:31N 46°30' W 001°48'2 3.6
2017-Oct-20 02:01N 46°28' W 001°47'2 4.2
2017-Oct-20 01:30N 46°27' W 001°49'3 6.8
2017-Oct-20 01:01N 46°28' W 001°54'4 7.2
2017-Oct-20 00:31N 46°29' W 001°58'4 7.1
2017-Oct-20 00:00N 46°31' W 002°02'4 7.3
2017-Oct-19 23:30N 46°33' W 002°07'4 7.4
2017-Oct-19 23:00N 46°35' W 002°12'74 8.4
2017-Oct-19 14:14N 47°11' W 003°45'312.1
2017-Oct-19 14:00N 47°13' W 003°49'1712.0
2017-Oct-19 12:37N 47°21' W 004°10'4011.8
2017-Oct-19 09:14N 47°41' W 005°02'311.7
2017-Oct-19 08:59N 47°42' W 005°06'712.1
2017-Oct-19 08:24N 47°45' W 005°15'24611.5
2017-Oct-18 11:05N 51°50' W 005°56'113.0
2017-Oct-18 11:00N 51°51' W 005°55'612.9
2017-Oct-18 10:30N 51°57' W 005°52'612.7
2017-Oct-18 10:00N 52°03' W 005°48'612.1
2017-Oct-18 09:30N 52°08' W 005°44'611.9
2017-Oct-18 09:00N 52°14' W 005°40'611.4
2017-Oct-18 08:30N 52°19' W 005°37'9411.1
2017-Oct-18 00:01N 53°33' W 004°01'114.0
2017-Oct-17 23:58N 53°33' W 003°60'813.6
2017-Oct-17 23:24N 53°33' W 003°47'513.3
2017-Oct-17 23:00N 53°33' W 003°38'713.1
2017-Oct-17 22:30N 53°33' W 003°27'712.7
2017-Oct-17 21:58N 53°32' W 003°15'5 9.4
2017-Oct-17 21:29N 53°32' W 003°08'711.4
2017-Oct-17 20:53N 53°26' W 003°01'4 9.2
2017-Oct-17 20:29N 53°23' W 002°59'4 6.7
2017-Oct-17 19:57N 53°19' W 002°57'0 0.6
2017-Oct-17 19:30N 53°19' W 002°57'1 1.4
2017-Oct-17 19:00N 53°19' W 002°56'2 4.6
2017-Oct-17 18:29N 53°17' W 002°53'3 5.9
2017-Oct-17 17:54N 53°18' W 002°47'3 5.3
2017-Oct-17 17:23N 53°20' W 002°45'0 0.2
2017-Oct-17 17:00N 53°20' W 002°45'0 0.0
2017-Oct-17 11:26N 53°20' W 002°45'0 0.0
2017-Oct-17 04:35N 53°20' W 002°45'0 0.0
2017-Oct-17 04:29N 53°20' W 002°45'0 0.0
2017-Oct-17 00:24N 53°20' W 002°45'0 0.0
2017-Oct-16 15:54N 53°20' W 002°45'0 0.0
2017-Oct-16 15:26N 53°20' W 002°45'0 0.0
2017-Oct-16 12:22N 53°20' W 002°45'0 0.0
2017-Oct-16 05:07N 53°20' W 002°45'0 0.0
2017-Oct-16 03:18N 53°20' W 002°45'0 0.0
2017-Oct-16 02:48N 53°20' W 002°45'0 0.0
2017-Oct-16 01:53N 53°20' W 002°45'0 0.0
2017-Oct-15 23:56N 53°20' W 002°45'0 0.0
2017-Oct-15 23:25N 53°20' W 002°45'0 0.0
2017-Oct-15 22:01N 53°20' W 002°45'0 0.0
2017-Oct-15 21:55N 53°20' W 002°45'0 0.0
2017-Oct-15 21:09N 53°20' W 002°45'0 0.0
2017-Oct-15 19:51N 53°20' W 002°45'0 0.0
2017-Oct-15 17:43N 53°20' W 002°45'0 0.0
2017-Oct-15 09:10N 53°20' W 002°45'0 0.0
2017-Oct-15 08:43N 53°20' W 002°45'0 0.0
2017-Oct-15 08:19N 53°20' W 002°45'0 0.0
2017-Oct-14 23:37N 53°20' W 002°45'0 0.0
2017-Oct-14 22:09N 53°20' W 002°45'0 0.0
2017-Oct-14 20:42N 53°20' W 002°45'0 0.0
2017-Oct-14 19:35N 53°20' W 002°45'0 0.0
2017-Oct-14 18:11N 53°20' W 002°45'0 0.0
2017-Oct-14 16:43N 53°20' W 002°45'0 0.0
2017-Oct-14 15:37N 53°20' W 002°45'0 0.0
2017-Oct-14 12:56N 53°20' W 002°45'0 0.0
2017-Oct-14 04:42N 53°20' W 002°45'0 0.0
2017-Oct-13 21:37N 53°20' W 002°45'0 0.0
2017-Oct-13 20:51N 53°20' W 002°45'0 0.0
2017-Oct-13 18:59N 53°20' W 002°45'0 0.0
2017-Oct-13 16:31N 53°20' W 002°45'0 0.0
2017-Oct-13 11:07N 53°20' W 002°45'0 0.0
2017-Oct-13 10:49N 53°20' W 002°45'0 0.0
2017-Oct-13 10:19N 53°20' W 002°45'0 0.0
2017-Oct-13 00:45N 53°20' W 002°45'0 0.0
2017-Oct-12 21:01N 53°20' W 002°45'0 0.0
2017-Oct-12 20:40N 53°20' W 002°45'0 0.0
2017-Oct-12 19:19N 53°20' W 002°45'0 0.0
2017-Oct-12 18:57N 53°20' W 002°45'0 0.2
2017-Oct-12 18:28N 53°20' W 002°45'2 3.3
2017-Oct-12 17:58N 53°19' W 002°45'3 5.9
2017-Oct-12 17:30N 53°17' W 002°49'3 5.0
2017-Oct-12 17:00N 53°17' W 002°53'3 4.9
2017-Oct-12 16:28N 53°19' W 002°57'1 1.3
2017-Oct-12 15:55N 53°20' W 002°57'3 5.4
2017-Oct-12 15:27N 53°22' W 002°59'3 7.1
2017-Oct-12 14:58N 53°25' W 003°01'611.1
2017-Oct-12 14:25N 53°30' W 003°06'4 9.3
2017-Oct-12 13:59N 53°31' W 003°13'5 9.4
2017-Oct-12 13:29N 53°32' W 003°21'4 7.9
2017-Oct-12 12:59N 53°31' W 003°27'4 9.1
2017-Oct-12 12:30N 53°31' W 003°35'610.4
2017-Oct-12 11:53N 53°31' W 003°46'510.4
2017-Oct-12 11:27N 53°30' W 003°53'  

Dump ship's entire track history